Time;durP1;ratioP1;P1;durP2;ratioP2;P2;SDS_P1;SDS_P2;PMS_P1;PMS_P2;Temp;Humidity;BMP_temperature;BMP_pressure;BME280_temperature;BME280_humidity;BME280_pressure;Samples;Min_cycle;Max_cycle;Signal;HPM_P1;HPM_P2
2024/01/07 00:01:49;;;;;;;15.07;6.17;;;5.90;98.00;;;;;;5054633;28;20446;-67
2024/01/07 00:04:17;;;;;;;12.67;5.57;;;5.90;98.00;;;;;;5054672;28;20446;-66
2024/01/07 00:06:44;;;;;;;16.97;6.57;;;6.00;98.00;;;;;;5054227;28;20475;-66
2024/01/07 00:09:12;;;;;;;15.93;6.63;;;5.90;98.00;;;;;;5036617;28;20453;-66
2024/01/07 00:11:39;;;;;;;16.07;7.00;;;5.90;98.00;;;;;;5054454;28;20486;-66
2024/01/07 00:14:06;;;;;;;14.73;6.50;;;5.70;98.00;;;;;;5054038;28;20534;-66
2024/01/07 00:16:34;;;;;;;14.17;6.30;;;5.70;98.00;;;;;;5054178;28;20483;-67
2024/01/07 00:19:01;;;;;;;15.60;6.20;;;5.70;98.00;;;;;;5053924;28;20886;-66
2024/01/07 00:21:31;;;;;;;17.90;6.00;;;5.80;98.00;;;;;;5054087;28;20464;-66
2024/01/07 00:23:58;;;;;;;17.27;6.80;;;5.90;98.00;;;;;;5053973;28;20454;-67
2024/01/07 00:26:25;;;;;;;16.77;7.13;;;5.90;98.00;;;;;;5054175;28;20940;-66
2024/01/07 00:28:54;;;;;;;13.10;5.90;;;5.90;98.00;;;;;;5053998;28;20484;-66
2024/01/07 00:31:21;;;;;;;16.73;6.73;;;6.00;98.00;;;;;;5019841;28;20463;-66
2024/01/07 00:33:48;;;;;;;17.50;6.80;;;6.00;98.00;;;;;;5036217;28;20458;-67
2024/01/07 00:36:15;;;;;;;16.47;6.90;;;5.90;98.00;;;;;;5053702;28;20745;-66
2024/01/07 00:38:44;;;;;;;17.20;6.40;;;5.80;98.00;;;;;;5053521;28;20962;-66
2024/01/07 00:41:11;;;;;;;13.00;5.70;;;5.80;98.00;;;;;;5053557;28;20479;-67
2024/01/07 00:43:38;;;;;;;15.83;6.60;;;5.80;98.00;;;;;;5053505;28;20457;-67
2024/01/07 00:46:06;;;;;;;15.67;6.83;;;5.90;98.00;;;;;;5035775;28;20811;-66
2024/01/07 00:48:34;;;;;;;14.57;6.10;;;6.00;98.00;;;;;;5053189;28;20487;-66
2024/01/07 00:51:01;;;;;;;14.47;6.30;;;6.10;98.00;;;;;;5053459;28;20449;-66
2024/01/07 00:53:28;;;;;;;14.63;5.80;;;6.30;98.00;;;;;;5035399;28;20471;-66
2024/01/07 00:55:58;;;;;;;16.90;6.27;;;6.30;98.00;;;;;;5035795;28;20456;-66
2024/01/07 00:58:24;;;;;;;17.43;6.70;;;6.30;98.00;;;;;;5052076;28;20459;-66
2024/01/07 01:00:53;;;;;;;15.93;6.47;;;6.30;98.00;;;;;;5053283;28;20458;-65
2024/01/07 01:03:20;;;;;;;16.33;6.70;;;6.30;98.00;;;;;;5053089;28;20449;-66
2024/01/07 01:05:48;;;;;;;16.20;6.40;;;6.30;98.00;;;;;;5052987;28;20466;-66
2024/01/07 01:08:15;;;;;;;13.30;5.80;;;6.20;98.00;;;;;;5053168;28;20510;-66
2024/01/07 01:10:42;;;;;;;12.60;5.67;;;6.20;98.00;;;;;;5035242;28;21026;-66
2024/01/07 01:13:10;;;;;;;15.30;6.73;;;6.10;98.00;;;;;;5053027;28;20450;-66
2024/01/07 01:15:37;;;;;;;19.17;6.87;;;6.10;98.00;;;;;;5052680;28;20443;-67
2024/01/07 01:18:05;;;;;;;13.33;5.70;;;6.10;98.00;;;;;;5052753;28;20465;-66
2024/01/07 01:20:32;;;;;;;19.50;7.73;;;6.10;98.00;;;;;;5053001;28;20468;-66
2024/01/07 01:22:59;;;;;;;21.10;7.97;;;6.10;98.00;;;;;;5052574;28;20452;-66
2024/01/07 01:25:27;;;;;;;17.90;7.50;;;6.10;98.00;;;;;;5052817;28;20454;-66
2024/01/07 01:27:54;;;;;;;19.60;6.90;;;6.10;98.00;;;;;;5052713;28;20569;-67
2024/01/07 01:30:22;;;;;;;16.80;7.50;;;6.20;98.00;;;;;;5052730;28;20867;-67
2024/01/07 01:32:49;;;;;;;17.30;7.07;;;6.20;98.00;;;;;;5052581;28;20462;-66
2024/01/07 01:35:18;;;;;;;22.00;7.97;;;6.20;98.00;;;;;;5035153;28;20446;-67
2024/01/07 01:37:45;;;;;;;19.43;7.30;;;6.20;98.00;;;;;;5052489;28;20469;-66
2024/01/07 01:40:13;;;;;;;17.90;7.50;;;6.20;98.00;;;;;;5052529;28;20461;-66
2024/01/07 01:42:43;;;;;;;17.57;7.70;;;6.20;98.00;;;;;;5052490;28;20474;-67
2024/01/07 01:45:10;;;;;;;16.97;7.00;;;6.10;98.00;;;;;;5034971;28;20469;-66
2024/01/07 01:47:40;;;;;;;20.33;7.50;;;6.10;98.00;;;;;;5052810;28;20529;-66
2024/01/07 01:50:08;;;;;;;19.17;6.90;;;6.00;98.00;;;;;;5052449;28;20948;-66
2024/01/07 01:52:37;;;;;;;19.13;7.50;;;6.00;98.00;;;;;;5052291;28;20459;-66
2024/01/07 01:55:05;;;;;;;22.60;9.00;;;6.00;98.00;;;;;;5034578;28;20900;-66
2024/01/07 01:57:38;;;;;;;22.63;8.27;;;6.00;98.00;;;;;;5052098;28;20490;-66
2024/01/07 02:00:08;;;;;;;18.90;7.33;;;6.00;98.00;;;;;;5052154;28;20462;-67
2024/01/07 02:02:35;;;;;;;20.37;7.60;;;6.00;98.00;;;;;;5051994;28;20978;-66
2024/01/07 02:05:04;;;;;;;22.37;7.93;;;6.00;98.00;;;;;;5051752;28;20474;-66
2024/01/07 02:07:31;;;;;;;17.80;7.70;;;6.00;98.00;;;;;;5051708;28;20470;-66
2024/01/07 02:10:00;;;;;;;18.63;7.80;;;6.00;98.00;;;;;;5051931;28;20521;-66
2024/01/07 02:12:27;;;;;;;24.17;8.37;;;6.10;98.00;;;;;;5052162;28;20619;-67
2024/01/07 02:14:54;;;;;;;25.20;9.43;;;6.00;98.00;;;;;;5052011;28;20818;-66
2024/01/07 02:17:22;;;;;;;24.10;8.30;;;6.00;98.00;;;;;;5051733;28;20615;-66
2024/01/07 02:19:56;;;;;;;20.90;8.20;;;6.00;98.00;;;;;;5033993;28;20465;-66
2024/01/07 02:22:25;;;;;;;24.93;9.30;;;6.00;98.00;;;;;;5051867;28;20488;-66
2024/01/07 02:24:54;;;;;;;23.40;8.47;;;6.00;98.00;;;;;;5051738;28;20451;-66
2024/01/07 02:27:21;;;;;;;18.63;7.80;;;6.00;98.00;;;;;;5051789;28;20455;-66
2024/01/07 02:29:48;;;;;;;18.60;7.80;;;6.10;98.00;;;;;;5051420;28;20488;-66
2024/01/07 02:32:15;;;;;;;20.90;8.23;;;6.10;98.00;;;;;;5051699;28;20468;-66
2024/01/07 02:34:44;;;;;;;15.97;6.73;;;6.10;98.00;;;;;;5051270;28;20453;-66
2024/01/07 02:37:12;;;;;;;18.37;8.20;;;6.10;98.00;;;;;;5033947;28;20460;-67
2024/01/07 02:39:39;;;;;;;22.73;8.53;;;6.10;98.00;;;;;;5051555;28;20502;-66
2024/01/07 02:42:07;;;;;;;18.70;7.20;;;6.20;98.00;;;;;;5051584;28;20455;-67
2024/01/07 02:44:34;;;;;;;21.77;7.77;;;6.00;98.00;;;;;;5051467;28;20450;-66
2024/01/07 02:47:01;;;;;;;17.27;8.00;;;5.90;98.00;;;;;;5051241;28;20811;-66
2024/01/07 02:49:30;;;;;;;20.43;7.43;;;5.80;98.00;;;;;;5051239;28;20482;-66
2024/01/07 02:51:57;;;;;;;21.80;8.43;;;5.70;98.00;;;;;;5051183;28;20464;-67
2024/01/07 02:54:27;;;;;;;20.53;8.10;;;5.80;98.00;;;;;;5051244;28;20454;-66
2024/01/07 02:56:55;;;;;;;18.90;7.80;;;5.80;98.00;;;;;;5017329;28;20983;-66
2024/01/07 02:59:24;;;;;;;20.20;7.90;;;5.80;98.00;;;;;;5051531;28;20459;-66
2024/01/07 03:01:51;;;;;;;20.50;8.07;;;5.90;98.00;;;;;;5051002;28;20459;-66
2024/01/07 03:04:20;;;;;;;26.80;8.93;;;5.90;98.00;;;;;;5051292;28;20863;-66
2024/01/07 03:06:47;;;;;;;25.00;8.67;;;5.90;98.00;;;;;;5051065;28;20471;-67
2024/01/07 03:09:14;;;;;;;24.80;8.60;;;6.00;98.00;;;;;;5051013;28;20905;-66
2024/01/07 03:11:41;;;;;;;26.07;8.73;;;6.00;98.00;;;;;;5051230;28;20458;-66
2024/01/07 03:14:08;;;;;;;24.20;8.53;;;6.00;98.00;;;;;;5050712;28;21001;-66
2024/01/07 03:16:37;;;;;;;20.27;7.20;;;6.00;98.00;;;;;;5033596;28;20449;-66
2024/01/07 03:19:05;;;;;;;19.97;7.67;;;6.00;98.00;;;;;;5054042;28;20451;-66
2024/01/07 03:21:32;;;;;;;20.57;7.63;;;6.30;98.00;;;;;;5055317;28;20537;-66
2024/01/07 03:23:59;;;;;;;23.27;8.70;;;6.30;98.00;;;;;;5055072;28;20459;-66
2024/01/07 03:26:30;;;;;;;29.63;8.37;;;6.20;98.00;;;;;;5055251;28;20455;-66
2024/01/07 03:28:59;;;;;;;19.80;7.33;;;6.30;98.00;;;;;;5055012;28;21037;-66
2024/01/07 03:31:26;;;;;;;19.60;7.70;;;6.30;98.00;;;;;;5054877;28;20489;-66
2024/01/07 03:33:55;;;;;;;17.57;6.40;;;6.30;98.00;;;;;;5054952;28;20768;-66
2024/01/07 03:36:22;;;;;;;18.30;7.17;;;6.40;98.00;;;;;;5037707;28;20457;-66
2024/01/07 03:38:49;;;;;;;17.67;6.90;;;6.40;98.00;;;;;;5054998;28;20450;-66
2024/01/07 03:41:20;;;;;;;13.00;6.37;;;6.30;98.00;;;;;;5054943;28;20462;-66
2024/01/07 03:43:51;;;;;;;15.23;6.60;;;6.40;98.00;;;;;;5055035;28;20455;-66
2024/01/07 03:46:18;;;;;;;14.43;6.27;;;6.40;98.00;;;;;;5054737;28;20463;-66
2024/01/07 03:48:46;;;;;;;15.40;7.00;;;6.40;98.00;;;;;;5036990;28;20486;-66
2024/01/07 03:51:14;;;;;;;14.30;6.00;;;6.30;98.00;;;;;;5054725;28;20946;-66
2024/01/07 03:53:41;;;;;;;17.27;6.90;;;6.40;98.00;;;;;;5054504;28;20826;-66
2024/01/07 03:56:08;;;;;;;14.87;6.13;;;6.40;98.00;;;;;;5054426;28;20456;-66
2024/01/07 03:58:35;;;;;;;15.77;6.73;;;6.40;98.00;;;;;;5054302;28;20454;-65
2024/01/07 04:01:02;;;;;;;13.87;6.47;;;6.40;98.00;;;;;;5054247;28;20952;-66
2024/01/07 04:03:29;;;;;;;16.20;6.50;;;6.40;98.00;;;;;;5054135;28;20503;-66
2024/01/07 04:05:56;;;;;;;13.77;6.30;;;6.40;98.00;;;;;;5054132;28;20485;-66
2024/01/07 04:08:25;;;;;;;19.47;7.17;;;6.40;98.00;;;;;;5054038;28;20509;-66
2024/01/07 04:10:52;;;;;;;16.93;6.50;;;6.40;98.00;;;;;;5054454;28;20963;-66
2024/01/07 04:13:19;;;;;;;18.50;7.13;;;6.40;98.00;;;;;;5054546;28;20469;-66
2024/01/07 04:15:46;;;;;;;18.13;7.50;;;6.50;98.00;;;;;;5036508;28;20443;-66
2024/01/07 04:18:13;;;;;;;19.53;7.03;;;6.40;98.00;;;;;;5054124;28;20479;-66
2024/01/07 04:20:40;;;;;;;16.43;6.80;;;6.40;98.00;;;;;;5054207;28;20449;-66
2024/01/07 04:23:07;;;;;;;14.47;6.83;;;6.40;98.00;;;;;;5053984;28;20464;-66
2024/01/07 04:25:35;;;;;;;14.73;6.97;;;6.40;98.00;;;;;;5053941;28;20448;-65
2024/01/07 04:28:02;;;;;;;16.50;6.90;;;6.40;98.00;;;;;;5053344;28;20451;-66
2024/01/07 04:30:29;;;;;;;13.97;6.07;;;6.30;98.00;;;;;;5035894;28;20477;-66
2024/01/07 04:32:56;;;;;;;21.03;7.77;;;6.30;98.00;;;;;;5053491;28;20446;-66
2024/01/07 04:35:24;;;;;;;17.93;7.13;;;6.30;98.00;;;;;;5053818;28;20461;-66
2024/01/07 04:37:51;;;;;;;13.90;6.63;;;6.30;98.00;;;;;;5036000;28;20451;-66
2024/01/07 04:40:19;;;;;;;17.17;7.00;;;6.30;98.00;;;;;;5053754;28;20451;-66
2024/01/07 04:42:47;;;;;;;18.17;7.63;;;6.40;98.00;;;;;;5035799;28;20519;-66
2024/01/07 04:45:14;;;;;;;18.20;7.20;;;6.40;98.00;;;;;;5053401;28;20446;-66
2024/01/07 04:47:40;;;;;;;18.50;7.23;;;6.30;98.00;;;;;;5053195;28;20461;-66
2024/01/07 04:50:08;;;;;;;17.07;7.67;;;6.40;98.00;;;;;;5053444;28;20508;-66
2024/01/07 04:52:35;;;;;;;17.33;7.13;;;6.30;98.00;;;;;;5053398;28;20465;-66
2024/01/07 04:55:02;;;;;;;18.33;7.87;;;6.20;98.00;;;;;;5053201;28;20452;-66
2024/01/07 04:57:29;;;;;;;19.60;6.70;;;6.20;98.00;;;;;;5053383;28;20465;-66
2024/01/07 04:59:57;;;;;;;15.93;7.00;;;6.10;98.00;;;;;;5053194;28;20446;-66
2024/01/07 05:02:25;;;;;;;16.63;6.80;;;6.30;98.00;;;;;;5053250;28;20457;-66
2024/01/07 05:04:52;;;;;;;15.53;7.23;;;6.30;98.00;;;;;;5052880;28;20460;-66
2024/01/07 05:07:19;;;;;;;20.27;7.40;;;6.40;98.00;;;;;;5053319;28;20480;-67
2024/01/07 05:09:46;;;;;;;16.27;7.17;;;6.40;98.00;;;;;;5052866;28;20508;-66
2024/01/07 05:12:13;;;;;;;15.80;6.43;;;6.40;98.00;;;;;;5053044;28;20477;-66
2024/01/07 05:14:42;;;;;;;14.87;6.17;;;6.30;98.00;;;;;;5052989;28;20501;-66
2024/01/07 05:17:11;;;;;;;20.17;6.80;;;6.30;98.00;;;;;;5035537;28;20487;-66
2024/01/07 05:19:41;;;;;;;14.80;7.03;;;6.30;98.00;;;;;;5053052;28;20533;-65
2024/01/07 05:22:08;;;;;;;15.37;6.67;;;6.30;98.00;;;;;;5053060;28;20454;-66
2024/01/07 05:24:40;;;;;;;13.70;5.83;;;6.30;98.00;;;;;;5053185;28;20791;-66
2024/01/07 05:27:07;;;;;;;13.57;6.07;;;6.20;98.00;;;;;;5053009;28;20460;-66
2024/01/07 05:29:34;;;;;;;21.63;6.80;;;6.20;98.00;;;;;;5052999;28;20483;-66
2024/01/07 05:32:02;;;;;;;15.40;6.13;;;6.30;98.00;;;;;;5052923;28;20493;-66
2024/01/07 05:34:31;;;;;;;14.77;5.73;;;6.20;98.00;;;;;;5052897;28;20506;-66
2024/01/07 05:36:58;;;;;;;17.83;7.20;;;6.10;98.00;;;;;;5052681;28;20454;-66
2024/01/07 05:39:25;;;;;;;14.50;6.87;;;6.20;98.00;;;;;;5052619;28;21013;-66
2024/01/07 05:41:54;;;;;;;19.20;6.90;;;6.10;98.00;;;;;;5051586;28;20463;-66
2024/01/07 05:44:21;;;;;;;19.13;7.00;;;6.20;98.00;;;;;;5052432;28;20560;-67
2024/01/07 05:46:48;;;;;;;17.27;7.37;;;6.10;98.00;;;;;;5052304;28;20750;-66
2024/01/07 05:49:15;;;;;;;14.90;6.50;;;6.10;98.00;;;;;;5052491;28;20485;-66
2024/01/07 05:51:43;;;;;;;17.17;6.93;;;6.10;98.00;;;;;;5034886;28;20457;-66
2024/01/07 05:54:10;;;;;;;18.00;6.93;;;6.10;98.00;;;;;;5052450;28;20450;-66
2024/01/07 05:56:40;;;;;;;16.53;6.40;;;6.20;98.00;;;;;;5052468;28;20449;-66
2024/01/07 05:59:07;;;;;;;15.33;6.87;;;6.10;98.00;;;;;;5052112;28;20541;-66
2024/01/07 06:01:35;;;;;;;20.00;8.00;;;6.00;98.00;;;;;;5052118;28;20454;-68
2024/01/07 06:04:02;;;;;;;16.40;7.63;;;6.10;98.00;;;;;;5052092;28;20952;-66
2024/01/07 06:06:29;;;;;;;17.23;7.43;;;6.00;98.00;;;;;;5001812;28;20470;-66
2024/01/07 06:08:57;;;;;;;18.33;7.30;;;6.10;98.00;;;;;;5051635;28;20450;-66
2024/01/07 06:11:25;;;;;;;19.13;6.87;;;6.10;98.00;;;;;;5052075;28;20625;-66
2024/01/07 06:13:52;;;;;;;19.80;8.40;;;6.20;98.00;;;;;;5034169;28;20454;-66
2024/01/07 06:16:19;;;;;;;19.03;7.67;;;6.10;98.00;;;;;;5051737;28;20465;-66
2024/01/07 06:18:46;;;;;;;20.10;7.57;;;6.00;98.00;;;;;;5051613;28;20446;-66
2024/01/07 06:21:13;;;;;;;17.23;7.03;;;6.00;98.00;;;;;;5051957;28;20457;-66
2024/01/07 06:23:40;;;;;;;19.93;8.03;;;6.20;98.00;;;;;;5052029;28;20450;-66
2024/01/07 06:26:09;;;;;;;19.07;7.50;;;6.20;98.00;;;;;;5051550;28;20454;-66
2024/01/07 06:28:36;;;;;;;18.83;7.23;;;6.00;98.00;;;;;;5051819;28;20751;-66
2024/01/07 06:31:04;;;;;;;18.23;7.20;;;5.90;98.00;;;;;;5051555;28;20505;-66
2024/01/07 06:33:31;;;;;;;15.17;6.60;;;5.80;98.00;;;;;;5051532;28;20552;-67
2024/01/07 06:35:58;;;;;;;19.80;8.00;;;5.70;98.00;;;;;;5051443;28;20805;-66
2024/01/07 06:38:27;;;;;;;16.80;7.57;;;5.70;98.00;;;;;;5051513;28;20461;-66
2024/01/07 06:40:54;;;;;;;14.83;7.10;;;5.90;98.00;;;;;;5051706;28;20499;-66
2024/01/07 06:43:25;;;;;;;16.67;6.70;;;5.80;98.00;;;;;;5051260;28;20453;-66
2024/01/07 06:45:52;;;;;;;17.40;7.00;;;6.00;98.00;;;;;;5033829;28;20468;-66
2024/01/07 06:48:19;;;;;;;15.97;7.37;;;6.00;98.00;;;;;;5051272;28;20472;-66
2024/01/07 06:50:46;;;;;;;17.63;6.50;;;6.00;98.00;;;;;;5051346;28;20489;-66
2024/01/07 06:53:13;;;;;;;16.60;7.20;;;5.90;98.00;;;;;;5050987;28;20451;-66
2024/01/07 06:55:41;;;;;;;16.73;6.43;;;5.70;98.00;;;;;;5051444;28;20450;-66
2024/01/07 06:58:08;;;;;;;22.37;7.30;;;5.80;98.00;;;;;;5051068;28;20495;-66
2024/01/07 07:00:46;;;;;;;16.30;6.83;;;5.80;98.00;;;;;;5051325;28;20460;-72
2024/01/07 07:03:13;;;;;;;13.73;6.00;;;5.80;98.00;;;;;;5051132;28;20942;-72
2024/01/07 07:05:40;;;;;;;17.33;7.30;;;6.00;98.00;;;;;;5051151;28;20466;-73
2024/01/07 07:08:07;;;;;;;18.60;6.90;;;5.80;98.00;;;;;;5051083;28;20472;-73
2024/01/07 07:10:34;;;;;;;16.13;6.83;;;5.70;98.00;;;;;;5051277;28;20880;-72
2024/01/07 07:13:01;;;;;;;16.90;7.10;;;5.70;98.00;;;;;;5051265;28;20444;-73
2024/01/07 07:15:28;;;;;;;23.07;8.87;;;5.80;98.00;;;;;;5051364;28;20470;-73
2024/01/07 07:17:59;;;;;;;18.67;7.20;;;5.80;98.00;;;;;;5051284;28;20449;-72
2024/01/07 07:20:26;;;;;;;17.47;6.93;;;5.80;98.00;;;;;;5051264;28;20739;-73
2024/01/07 07:22:53;;;;;;;16.20;6.70;;;5.90;98.00;;;;;;5051287;28;20458;-72
2024/01/07 07:25:21;;;;;;;12.13;5.70;;;5.70;98.00;;;;;;5050921;28;20948;-72
2024/01/07 07:27:48;;;;;;;13.50;5.73;;;5.60;98.00;;;;;;5033398;28;20455;-72
2024/01/07 07:30:15;;;;;;;12.40;5.77;;;5.70;98.00;;;;;;5050883;28;20486;-72
2024/01/07 07:32:42;;;;;;;13.60;5.30;;;5.60;98.00;;;;;;5051092;28;20449;-72
2024/01/07 07:35:11;;;;;;;13.50;5.50;;;5.50;98.00;;;;;;5050778;28;20455;-72
2024/01/07 07:37:39;;;;;;;15.73;5.40;;;5.60;98.00;;;;;;5050727;28;20449;-72
2024/01/07 07:40:07;;;;;;;10.10;5.30;;;5.50;98.00;;;;;;5050687;28;20665;-72
2024/01/07 07:42:34;;;;;;;11.97;4.73;;;5.60;98.00;;;;;;5049053;28;20461;-72
2024/01/07 07:45:04;;;;;;;15.17;5.73;;;5.60;98.00;;;;;;5050850;28;20464;-72
2024/01/07 07:47:32;;;;;;;10.83;5.30;;;5.60;98.00;;;;;;5050987;28;20460;-72
2024/01/07 07:49:59;;;;;;;13.27;5.10;;;5.50;98.00;;;;;;5050570;28;20482;-73
2024/01/07 07:52:28;;;;;;;12.97;5.40;;;5.30;98.00;;;;;;5050668;28;20884;-72
2024/01/07 07:54:55;;;;;;;12.00;4.90;;;5.40;98.00;;;;;;5050679;28;20460;-72
2024/01/07 07:57:24;;;;;;;13.77;5.97;;;5.50;98.00;;;;;;5050668;28;20454;-72
2024/01/07 07:59:52;;;;;;;14.37;5.83;;;5.50;98.00;;;;;;5033285;28;20564;-72
2024/01/07 08:02:20;;;;;;;11.70;5.50;;;5.60;98.00;;;;;;5050775;28;20461;-72
2024/01/07 08:04:48;;;;;;;13.60;5.57;;;5.60;98.00;;;;;;5053048;28;20482;-72
2024/01/07 08:07:15;;;;;;;12.53;5.23;;;5.60;98.00;;;;;;5054333;28;20458;-73
2024/01/07 08:09:43;;;;;;;12.60;5.50;;;5.70;98.00;;;;;;5054493;28;20830;-72
2024/01/07 08:12:11;;;;;;;14.53;5.67;;;5.80;98.00;;;;;;5020093;28;20935;-72
2024/01/07 08:14:41;;;;;;;17.37;5.27;;;5.70;98.00;;;;;;5054113;28;20541;-72
2024/01/07 08:17:08;;;;;;;13.20;5.13;;;5.70;98.00;;;;;;5036501;28;20522;-72
2024/01/07 08:19:36;;;;;;;11.73;5.00;;;5.70;98.00;;;;;;5036330;28;20460;-72
2024/01/07 08:22:04;;;;;;;12.27;5.10;;;5.70;98.00;;;;;;5053853;28;20461;-72
2024/01/07 08:24:31;;;;;;;12.90;5.30;;;5.70;98.00;;;;;;5054244;28;20454;-72
2024/01/07 08:27:00;;;;;;;11.37;4.70;;;5.60;98.00;;;;;;5036157;28;20975;-72
2024/01/07 08:29:27;;;;;;;11.27;4.77;;;5.60;98.00;;;;;;5053875;28;20479;-72
2024/01/07 08:31:54;;;;;;;8.87;4.43;;;5.50;98.00;;;;;;5054091;28;20457;-72
2024/01/07 08:34:21;;;;;;;11.83;5.53;;;5.40;98.00;;;;;;5054074;28;20453;-72
2024/01/07 08:36:49;;;;;;;12.80;5.00;;;5.50;98.00;;;;;;5053752;28;20463;-73
2024/01/07 08:39:16;;;;;;;12.00;4.90;;;5.50;98.00;;;;;;5019475;28;20452;-72
2024/01/07 08:41:43;;;;;;;9.83;4.57;;;5.40;98.00;;;;;;5053757;28;20457;-72
2024/01/07 08:44:12;;;;;;;13.30;4.93;;;5.50;98.00;;;;;;5036054;28;20560;-72
2024/01/07 08:46:39;;;;;;;12.67;5.30;;;5.50;98.00;;;;;;5055280;28;20459;-72
2024/01/07 08:49:06;;;;;;;11.00;4.63;;;5.50;98.00;;;;;;5053500;28;20926;-72
2024/01/07 08:51:33;;;;;;;9.70;4.20;;;5.50;98.00;;;;;;5035836;28;20489;-72
2024/01/07 08:54:01;;;;;;;12.90;5.20;;;5.50;98.00;;;;;;5053323;28;20452;-72
2024/01/07 08:56:28;;;;;;;9.83;4.63;;;5.40;98.00;;;;;;5053390;28;20516;-72
2024/01/07 08:58:55;;;;;;;11.40;4.70;;;5.40;98.00;;;;;;5053504;28;20547;-72
2024/01/07 09:01:24;;;;;;;9.30;4.40;;;5.30;98.00;;;;;;5053375;28;20532;-72
2024/01/07 09:03:51;;;;;;;9.27;4.03;;;5.10;98.00;;;;;;5053308;28;20515;-72
2024/01/07 09:06:18;;;;;;;11.97;5.00;;;5.20;98.00;;;;;;5035478;28;20466;-72
2024/01/07 09:08:45;;;;;;;14.00;4.90;;;5.10;98.00;;;;;;5053361;28;20460;-72
2024/01/07 09:11:13;;;;;;;12.17;4.90;;;5.10;98.00;;;;;;5053455;28;20493;-72
2024/01/07 09:13:40;;;;;;;10.40;4.07;;;5.00;98.00;;;;;;5053328;28;20468;-72
2024/01/07 09:16:09;;;;;;;11.40;5.13;;;5.10;98.00;;;;;;5053038;28;20455;-72
2024/01/07 09:18:37;;;;;;;12.17;4.87;;;5.30;98.00;;;;;;5053292;28;20897;-72
2024/01/07 09:21:06;;;;;;;10.10;5.10;;;5.20;98.00;;;;;;5052937;28;20970;-72
2024/01/07 09:23:36;;;;;;;10.70;4.53;;;5.10;98.00;;;;;;5052961;28;20452;-72
2024/01/07 09:26:03;;;;;;;10.53;4.40;;;5.10;98.00;;;;;;5035451;28;20451;-72
2024/01/07 09:28:31;;;;;;;11.13;4.80;;;5.10;98.00;;;;;;5053147;28;20456;-72
2024/01/07 09:30:58;;;;;;;9.80;4.30;;;5.00;98.00;;;;;;5052611;28;20496;-72
2024/01/07 09:33:25;;;;;;;10.10;4.63;;;5.00;98.00;;;;;;5053069;28;20460;-72
2024/01/07 09:35:54;;;;;;;10.00;4.57;;;4.90;98.00;;;;;;5052637;28;20459;-72
2024/01/07 09:38:21;;;;;;;8.30;3.90;;;4.90;98.00;;;;;;5052548;28;20456;-72
2024/01/07 09:40:49;;;;;;;14.30;4.93;;;4.90;98.00;;;;;;5052481;28;20802;-72
2024/01/07 09:43:16;;;;;;;16.93;4.73;;;4.80;98.00;;;;;;5052423;28;20443;-72
2024/01/07 09:45:47;;;;;;;9.97;4.70;;;4.60;98.00;;;;;;5052684;28;20454;-72
2024/01/07 09:48:14;;;;;;;12.80;4.93;;;4.60;98.00;;;;;;5035348;28;20887;-72
2024/01/07 09:50:41;;;;;;;11.53;4.83;;;4.60;98.00;;;;;;5052260;28;20484;-72
2024/01/07 09:53:15;;;;;;;10.10;4.47;;;4.70;98.00;;;;;;5034626;28;20451;-72
2024/01/07 09:55:52;;;;;;;9.33;4.00;;;4.60;98.00;;;;;;5052374;28;20455;-72
2024/01/07 09:58:19;;;;;;;9.27;4.20;;;4.60;98.00;;;;;;5034483;28;20457;-72
2024/01/07 10:00:47;;;;;;;11.07;4.63;;;4.70;98.00;;;;;;5052137;28;20472;-72
2024/01/07 10:03:14;;;;;;;8.97;4.33;;;4.70;98.00;;;;;;5034631;28;20458;-72
2024/01/07 10:05:44;;;;;;;10.83;4.60;;;4.70;98.00;;;;;;5051792;28;20965;-72
2024/01/07 10:08:13;;;;;;;12.53;4.43;;;4.70;98.00;;;;;;5034426;28;20452;-72
2024/01/07 10:10:41;;;;;;;12.27;4.97;;;4.60;98.00;;;;;;5051762;28;20516;-72
2024/01/07 10:13:09;;;;;;;11.17;4.30;;;4.60;98.00;;;;;;5034193;28;21048;-72
2024/01/07 10:15:37;;;;;;;12.30;4.60;;;4.60;98.00;;;;;;5051942;28;20436;-72
2024/01/07 10:18:06;;;;;;;9.60;4.90;;;4.50;98.00;;;;;;5051854;28;20461;-72
2024/01/07 10:20:34;;;;;;;10.40;4.90;;;4.50;98.00;;;;;;5051870;28;20460;-72
2024/01/07 10:23:02;;;;;;;13.20;4.87;;;4.50;98.00;;;;;;5051780;28;20631;-72
2024/01/07 10:25:32;;;;;;;12.83;4.60;;;4.50;98.00;;;;;;5051630;28;20466;-72
2024/01/07 10:28:01;;;;;;;10.50;4.73;;;4.50;98.00;;;;;;5051419;28;20826;-72
2024/01/07 10:30:28;;;;;;;13.23;4.83;;;4.50;98.00;;;;;;5034112;28;20772;-72
2024/01/07 10:32:58;;;;;;;10.17;4.50;;;4.50;98.00;;;;;;5051612;28;20831;-72
2024/01/07 10:35:33;;;;;;;11.53;4.60;;;4.50;98.00;;;;;;5051695;28;20468;-72
2024/01/07 10:38:00;;;;;;;10.10;4.20;;;4.60;98.00;;;;;;5051988;28;20489;-72
2024/01/07 10:40:32;;;;;;;8.13;3.90;;;4.60;98.00;;;;;;5052460;28;20469;-72
2024/01/07 10:42:59;;;;;;;10.13;4.50;;;4.70;98.00;;;;;;5052213;28;20458;-72
2024/01/07 10:45:27;;;;;;;12.07;4.97;;;4.80;98.00;;;;;;5051278;28;20974;-72
2024/01/07 10:47:59;;;;;;;10.00;4.93;;;4.90;98.00;;;;;;5051514;28;20461;-72
2024/01/07 10:50:30;;;;;;;8.63;4.30;;;4.90;98.00;;;;;;5051228;28;20457;-72
2024/01/07 10:53:02;;;;;;;10.33;4.10;;;4.90;98.00;;;;;;5051404;28;20460;-72
2024/01/07 10:55:35;;;;;;;12.10;4.20;;;4.80;98.00;;;;;;5034217;28;20457;-72
2024/01/07 10:58:05;;;;;;;11.00;4.00;;;4.80;98.00;;;;;;5051453;28;20461;-72
2024/01/07 11:00:34;;;;;;;13.50;4.60;;;4.80;98.00;;;;;;5051651;28;20459;-72
2024/01/07 11:03:10;;;;;;;8.07;3.90;;;4.80;98.00;;;;;;5051545;28;20459;-72
2024/01/07 11:05:43;;;;;;;17.60;5.60;;;4.90;98.00;;;;;;5051292;28;20470;-72
2024/01/07 11:08:19;;;;;;;9.10;4.47;;;4.90;98.00;;;;;;5051168;28;20463;-72
2024/01/07 11:10:51;;;;;;;12.73;4.90;;;4.90;98.00;;;;;;5051008;28;20488;-72
2024/01/07 11:13:34;;;;;;;11.50;4.60;;;4.80;98.00;;;;;;5051166;28;20471;-72
2024/01/07 11:16:02;;;;;;;11.83;4.90;;;4.80;98.00;;;;;;5032728;28;20534;-72
2024/01/07 11:18:33;;;;;;;11.10;4.73;;;4.80;98.00;;;;;;5051214;28;20468;-72
2024/01/07 11:21:02;;;;;;;11.90;4.43;;;4.60;98.00;;;;;;5050915;28;20477;-72
2024/01/07 11:23:32;;;;;;;11.47;5.03;;;4.50;98.00;;;;;;5051018;28;20536;-72
2024/01/07 11:26:02;;;;;;;10.63;4.27;;;4.60;98.00;;;;;;5033144;28;20483;-72
2024/01/07 11:28:50;;;;;;;11.50;4.90;;;4.60;98.00;;;;;;5051019;28;20465;-72
2024/01/07 11:31:19;;;;;;;12.47;5.00;;;4.60;98.00;;;;;;5033461;28;21032;-72
2024/01/07 11:33:47;;;;;;;13.83;4.90;;;4.70;98.00;;;;;;5050749;28;20839;-72
2024/01/07 11:36:15;;;;;;;11.60;4.50;;;4.60;98.00;;;;;;5050911;28;20454;-72
2024/01/07 11:38:44;;;;;;;13.23;4.83;;;4.60;98.00;;;;;;5033670;28;20530;-72
2024/01/07 11:41:14;;;;;;;9.97;4.50;;;4.60;98.00;;;;;;5054738;28;20462;-72
2024/01/07 11:43:54;;;;;;;10.80;4.90;;;4.60;98.00;;;;;;5054753;28;20948;-72
2024/01/07 11:46:22;;;;;;;9.53;4.13;;;4.50;98.00;;;;;;5054898;28;20538;-72
2024/01/07 11:48:50;;;;;;;13.60;4.80;;;4.40;98.00;;;;;;5054240;28;20476;-72
2024/01/07 11:51:17;;;;;;;12.40;4.30;;;4.40;98.00;;;;;;5054777;28;20470;-72
2024/01/07 11:53:47;;;;;;;10.13;4.00;;;4.50;98.00;;;;;;5054463;28;20456;-72
2024/01/07 11:56:16;;;;;;;9.33;4.10;;;4.40;98.00;;;;;;5054463;28;20439;-72
2024/01/07 11:58:43;;;;;;;10.00;4.20;;;4.30;98.00;;;;;;5054508;28;20837;-72
2024/01/07 12:01:10;;;;;;;8.47;3.80;;;4.30;98.00;;;;;;5054389;28;20843;-72
2024/01/07 12:03:37;;;;;;;7.97;4.10;;;4.30;98.00;;;;;;5054389;28;20940;-72
2024/01/07 12:06:05;;;;;;;10.43;4.17;;;4.20;98.00;;;;;;5054307;28;20492;-72
2024/01/07 12:08:32;;;;;;;9.97;4.37;;;4.20;98.00;;;;;;5054195;28;20948;-72
2024/01/07 12:11:01;;;;;;;15.10;4.93;;;4.10;98.00;;;;;;5054049;28;20523;-72
2024/01/07 12:13:29;;;;;;;9.33;4.43;;;3.90;98.00;;;;;;5054337;28;20541;-72
2024/01/07 12:15:58;;;;;;;10.03;4.40;;;4.00;98.00;;;;;;5053974;28;20512;-72
2024/01/07 12:18:26;;;;;;;16.30;4.97;;;4.00;98.00;;;;;;5036689;28;20793;-72
2024/01/07 12:20:58;;;;;;;18.03;5.50;;;4.00;98.00;;;;;;5053859;28;20487;-72
2024/01/07 12:23:26;;;;;;;15.30;5.77;;;3.90;98.00;;;;;;5054357;28;20459;-72
2024/01/07 12:25:54;;;;;;;15.77;5.10;;;4.00;98.00;;;;;;5053898;28;20528;-72
2024/01/07 12:28:21;;;;;;;12.43;4.93;;;4.10;98.00;;;;;;5053904;28;20498;-72
2024/01/07 12:30:50;;;;;;;15.90;5.50;;;4.10;98.00;;;;;;5053738;28;20793;-72
2024/01/07 12:33:18;;;;;;;12.40;4.93;;;4.10;98.00;;;;;;5053930;28;20455;-72
2024/01/07 12:35:46;;;;;;;11.27;4.87;;;4.10;98.00;;;;;;5053894;28;20488;-72
2024/01/07 12:38:13;;;;;;;12.77;5.50;;;4.00;98.00;;;;;;5036230;28;20459;-72
2024/01/07 12:40:40;;;;;;;14.17;5.87;;;4.10;98.00;;;;;;5053755;28;20466;-72
2024/01/07 12:43:07;;;;;;;12.43;4.67;;;4.10;98.00;;;;;;5053708;28;20466;-72
2024/01/07 12:45:35;;;;;;;12.67;5.43;;;4.10;98.00;;;;;;5053734;28;20448;-72
2024/01/07 12:48:07;;;;;;;12.40;5.70;;;4.10;98.00;;;;;;5053737;28;20454;-72
2024/01/07 12:50:34;;;;;;;16.67;5.13;;;4.10;98.00;;;;;;5053241;28;20472;-72
2024/01/07 12:53:01;;;;;;;14.73;6.67;;;4.10;98.00;;;;;;5053731;28;20497;-72